createdAt,value
2018-06-24T00:02:25.667Z,30.03
2018-06-24T00:04:54.904Z,29.70
2018-06-24T00:07:23.840Z,30.02
2018-06-24T00:09:52.849Z,30.11
2018-06-24T00:12:22.797Z,29.99
2018-06-24T00:14:51.800Z,29.83
2018-06-24T00:17:20.634Z,30.25
2018-06-24T00:19:49.581Z,29.71
2018-06-24T00:22:18.614Z,30.09
2018-06-24T00:24:47.872Z,30.10
2018-06-24T00:27:17.072Z,29.85
2018-06-24T00:29:46.078Z,29.66
2018-06-24T00:32:15.208Z,29.74
2018-06-24T00:34:44.523Z,29.58
2018-06-24T00:37:13.651Z,30.13
2018-06-24T00:39:42.617Z,29.74
2018-06-24T00:42:11.570Z,30.19
2018-06-24T00:44:40.636Z,30.24
2018-06-24T00:47:09.832Z,29.66
2018-06-24T00:49:38.737Z,29.85
2018-06-24T00:52:07.601Z,29.70
2018-06-24T00:54:36.716Z,29.74
2018-06-24T00:57:05.804Z,30.10
2018-06-24T00:59:45.772Z,29.91
2018-06-24T01:02:14.870Z,29.87
2018-06-24T01:04:43.755Z,30.14
2018-06-24T01:07:12.902Z,30.20
2018-06-24T01:09:41.943Z,29.65
2018-06-24T01:12:11.096Z,30.19
2018-06-24T01:14:40.293Z,30.20
2018-06-24T01:17:09.596Z,29.61
2018-06-24T01:19:38.533Z,30.18
2018-06-24T01:22:07.610Z,30.27
2018-06-24T01:24:36.727Z,29.56
2018-06-24T01:27:05.638Z,29.76
2018-06-24T01:29:34.581Z,29.71
2018-06-24T01:32:03.609Z,30.16
2018-06-24T01:34:32.688Z,29.63
2018-06-24T01:37:01.718Z,29.64
2018-06-24T01:39:30.761Z,29.72
2018-06-24T01:41:59.802Z,29.63
2018-06-24T01:44:28.748Z,29.76
2018-06-24T01:46:57.664Z,30.16
2018-06-24T01:49:26.837Z,30.11
2018-06-24T01:51:55.881Z,29.80
2018-06-24T01:54:25.083Z,29.62
2018-06-24T01:56:53.952Z,29.90
2018-06-24T01:59:23.091Z,29.67
2018-06-24T02:01:52.155Z,29.67
2018-06-24T02:04:21.146Z,29.61
2018-06-24T02:06:50.145Z,29.51
2018-06-24T02:09:19.146Z,30.12
2018-06-24T02:11:47.988Z,30.09
2018-06-24T02:14:16.876Z,29.53
2018-06-24T02:16:45.870Z,29.56
2018-06-24T02:19:14.766Z,29.56
2018-06-24T02:21:43.717Z,29.52
2018-06-24T02:24:12.757Z,29.48
2018-06-24T02:26:41.683Z,29.71
2018-06-24T02:29:10.583Z,29.45
2018-06-24T02:31:39.631Z,29.89
2018-06-24T02:34:08.522Z,30.03
2018-06-24T02:36:37.414Z,29.78
2018-06-24T02:39:08.781Z,30.05
2018-06-24T02:41:37.718Z,29.46
2018-06-24T02:44:06.661Z,29.58
2018-06-24T02:46:35.656Z,29.68
2018-06-24T02:49:04.745Z,29.76
2018-06-24T02:51:33.702Z,30.13
2018-06-24T02:54:02.721Z,30.03
2018-06-24T02:56:31.503Z,29.97
2018-06-24T02:59:00.464Z,29.51
2018-06-24T03:01:29.290Z,29.85
2018-06-24T03:03:59.116Z,29.98
2018-06-24T03:06:28.166Z,30.02
2018-06-24T03:08:57.162Z,29.91
2018-06-24T03:11:26.241Z,29.70
2018-06-24T03:13:55.215Z,29.59
2018-06-24T03:16:24.230Z,29.58
2018-06-24T03:18:53.773Z,30.15
2018-06-24T03:21:22.994Z,30.08
2018-06-24T03:23:52.133Z,29.72
2018-06-24T03:26:21.094Z,29.48
2018-06-24T03:28:50.111Z,30.05
2018-06-24T03:31:19.023Z,29.99
2018-06-24T03:33:47.808Z,30.18
2018-06-24T03:36:16.691Z,29.90
2018-06-24T03:38:45.807Z,29.95
2018-06-24T03:41:14.890Z,29.81
2018-06-24T03:43:43.798Z,30.02
2018-06-24T03:46:12.769Z,29.86
2018-06-24T03:48:41.572Z,30.07
2018-06-24T03:51:10.740Z,30.10
2018-06-24T03:53:39.768Z,29.41
2018-06-24T03:56:08.943Z,29.69
2018-06-24T03:58:38.009Z,29.50
2018-06-24T04:01:07.314Z,29.59
2018-06-24T04:03:36.264Z,30.07
2018-06-24T04:06:05.422Z,29.72
2018-06-24T04:08:34.299Z,29.76
2018-06-24T04:11:03.370Z,29.53
2018-06-24T04:13:33.000Z,29.43
2018-06-24T04:16:05.201Z,30.01
2018-06-24T04:18:38.826Z,29.95
2018-06-24T04:21:08.009Z,29.88
2018-06-24T04:23:37.084Z,30.06
2018-06-24T04:26:06.849Z,29.68
2018-06-24T04:28:36.072Z,29.89
2018-06-24T04:31:05.173Z,29.96
2018-06-24T04:33:34.895Z,29.94
2018-06-24T04:36:04.184Z,29.42
2018-06-24T04:38:33.281Z,29.96
2018-06-24T04:41:02.508Z,29.99
2018-06-24T04:43:31.425Z,29.42
2018-06-24T04:46:00.982Z,29.89
2018-06-24T04:48:30.141Z,29.89
2018-06-24T04:50:59.228Z,29.99
2018-06-24T04:53:28.154Z,29.73
2018-06-24T04:55:57.316Z,29.61
2018-06-24T04:58:26.202Z,29.60
2018-06-24T05:00:55.142Z,29.75
2018-06-24T05:03:24.915Z,29.78
2018-06-24T05:05:53.886Z,29.35
2018-06-24T05:08:22.955Z,29.66
2018-06-24T05:10:52.100Z,29.07
2018-06-24T05:13:21.299Z,29.16
2018-06-24T05:15:50.210Z,29.42
2018-06-24T05:18:20.000Z,29.38
2018-06-24T05:20:49.241Z,29.31
2018-06-24T05:23:18.354Z,29.60
2018-06-24T05:25:47.487Z,28.90
2018-06-24T05:28:16.372Z,29.45
2018-06-24T05:30:45.325Z,29.45
2018-06-24T05:33:14.463Z,28.90
2018-06-24T05:35:43.359Z,29.47
2018-06-24T05:38:12.260Z,28.82
2018-06-24T05:40:41.163Z,29.31
2018-06-24T05:43:10.307Z,28.90
2018-06-24T05:45:39.409Z,28.83
2018-06-24T05:48:08.327Z,28.98
2018-06-24T05:50:37.459Z,29.32
2018-06-24T05:53:06.524Z,29.24
2018-06-24T05:55:35.523Z,29.56
2018-06-24T05:58:04.776Z,29.52
2018-06-24T06:00:33.715Z,29.72
2018-06-24T06:03:02.763Z,29.54
2018-06-24T06:05:31.883Z,29.39
2018-06-24T06:08:00.859Z,29.22
2018-06-24T06:10:29.888Z,29.18
2018-06-24T06:12:58.960Z,29.06
2018-06-24T06:15:27.893Z,29.68
2018-06-24T06:17:56.938Z,29.19
2018-06-24T06:20:25.874Z,28.99
2018-06-24T06:22:54.879Z,29.02
2018-06-24T06:25:23.963Z,28.78
2018-06-24T06:27:52.913Z,29.06
2018-06-24T06:30:22.325Z,29.18
2018-06-24T06:32:51.585Z,29.71
2018-06-24T06:35:20.637Z,29.64
2018-06-24T06:37:49.623Z,29.72
2018-06-24T06:40:18.609Z,29.41
2018-06-24T06:42:47.841Z,29.33
2018-06-24T06:45:16.954Z,29.26
2018-06-24T06:47:45.922Z,29.25
2018-06-24T06:50:14.940Z,29.26
2018-06-24T06:52:43.945Z,29.43
2018-06-24T06:55:12.971Z,29.35
2018-06-24T06:57:41.962Z,29.53
2018-06-24T07:00:11.063Z,29.88
2018-06-24T07:02:40.201Z,29.16
2018-06-24T07:05:09.262Z,29.67
2018-06-24T07:07:38.444Z,29.34
2018-06-24T07:10:07.623Z,29.68
2018-06-24T07:12:36.628Z,28.97
2018-06-24T07:15:06.007Z,29.60
2018-06-24T07:17:35.104Z,28.72
2018-06-24T07:20:04.296Z,29.40
2018-06-24T07:22:34.063Z,29.36
2018-06-24T07:25:03.219Z,28.92
2018-06-24T07:27:32.223Z,28.84
2018-06-24T07:30:01.214Z,29.48
2018-06-24T07:32:30.370Z,28.86
2018-06-24T07:34:59.491Z,29.33
2018-06-24T07:37:28.414Z,28.98
2018-06-24T07:39:57.611Z,28.75
2018-06-24T07:42:26.677Z,28.96
2018-06-24T07:44:55.742Z,28.52
2018-06-24T07:47:24.896Z,28.75
2018-06-24T07:49:53.983Z,28.59
2018-06-24T07:52:23.018Z,29.19
2018-06-24T07:54:52.068Z,28.80
2018-06-24T07:57:21.170Z,29.18
2018-06-24T07:59:50.274Z,28.70
2018-06-24T08:02:19.458Z,29.11
2018-06-24T08:04:48.511Z,29.10
2018-06-24T08:07:17.386Z,29.13
2018-06-24T08:09:46.424Z,29.03
2018-06-24T08:12:15.544Z,28.34
2018-06-24T08:14:44.479Z,28.41
2018-06-24T08:17:13.528Z,28.54
2018-06-24T08:19:42.487Z,28.51
2018-06-24T08:22:11.419Z,28.57
2018-06-24T08:24:40.601Z,28.77
2018-06-24T08:27:09.649Z,28.99
2018-06-24T08:29:38.883Z,28.62
2018-06-24T08:32:08.015Z,28.50
2018-06-24T08:34:37.068Z,28.53
2018-06-24T08:37:06.192Z,28.45
2018-06-24T08:39:35.145Z,29.36
2018-06-24T08:42:04.361Z,28.45
2018-06-24T08:44:33.517Z,29.12
2018-06-24T08:47:02.579Z,29.12
2018-06-24T08:49:31.638Z,28.92
2018-06-24T08:52:00.765Z,29.30
2018-06-24T08:54:29.767Z,28.75
2018-06-24T08:56:59.068Z,29.22
2018-06-24T08:59:28.146Z,28.66
2018-06-24T09:01:57.272Z,29.18
2018-06-24T09:04:26.508Z,28.70
2018-06-24T09:06:55.545Z,29.01
2018-06-24T09:09:24.699Z,28.95
2018-06-24T09:11:53.948Z,28.74
2018-06-24T09:14:23.003Z,29.02
2018-06-24T09:16:51.990Z,28.94
2018-06-24T09:19:21.041Z,29.27
2018-06-24T09:21:50.018Z,29.01
2018-06-24T09:24:19.055Z,29.22
2018-06-24T09:26:48.277Z,29.14
2018-06-24T09:29:17.351Z,29.27
2018-06-24T09:31:46.436Z,29.38
2018-06-24T09:34:15.556Z,29.34
2018-06-24T09:36:44.812Z,28.86
2018-06-24T09:39:14.072Z,28.85
2018-06-24T09:41:43.126Z,28.90
2018-06-24T09:44:12.153Z,28.76
2018-06-24T09:46:41.183Z,29.21
2018-06-24T09:49:10.161Z,29.39
2018-06-24T09:51:39.090Z,29.10
2018-06-24T09:54:08.187Z,29.03
2018-06-24T09:56:37.281Z,29.34
2018-06-24T09:59:06.342Z,29.49
2018-06-24T10:01:35.437Z,29.34
2018-06-24T10:04:04.626Z,29.47
2018-06-24T10:06:33.576Z,29.58
2018-06-24T10:09:02.723Z,29.67
2018-06-24T10:11:31.767Z,29.50
2018-06-24T10:14:00.943Z,29.47
2018-06-24T10:16:29.949Z,29.41
2018-06-24T10:18:59.100Z,29.46
2018-06-24T10:21:28.238Z,29.80
2018-06-24T10:23:57.253Z,29.53
2018-06-24T10:26:26.431Z,29.28
2018-06-24T10:28:55.335Z,29.29
2018-06-24T10:31:24.298Z,29.76
2018-06-24T10:33:53.384Z,29.45
2018-06-24T10:36:22.522Z,29.47
2018-06-24T10:38:51.472Z,30.02
2018-06-24T10:41:20.561Z,30.00
2018-06-24T10:43:49.583Z,29.88
2018-06-24T10:46:18.704Z,29.50
2018-06-24T10:48:47.804Z,29.59
2018-06-24T10:51:16.867Z,29.59
2018-06-24T10:53:45.999Z,29.53
2018-06-24T10:56:15.298Z,30.14
2018-06-24T10:58:44.069Z,29.84
2018-06-24T11:01:12.952Z,29.98
2018-06-24T11:03:41.869Z,29.73
2018-06-24T11:06:10.723Z,29.69
2018-06-24T11:08:39.925Z,29.71
2018-06-24T11:11:08.950Z,30.29
2018-06-24T11:13:38.174Z,30.55
2018-06-24T11:16:07.405Z,29.74
2018-06-24T11:18:36.706Z,30.30
2018-06-24T11:21:05.822Z,30.22
2018-06-24T11:23:34.903Z,30.28
2018-06-24T11:26:03.946Z,29.85
2018-06-24T11:28:33.036Z,30.22
2018-06-24T11:31:01.957Z,30.14
2018-06-24T11:33:31.215Z,29.73
2018-06-24T11:36:00.298Z,30.10
2018-06-24T11:38:29.179Z,29.84
2018-06-24T11:40:58.300Z,29.88
2018-06-24T11:43:27.194Z,30.43
2018-06-24T11:45:56.210Z,30.28
2018-06-24T11:48:25.806Z,29.81
2018-06-24T11:50:54.680Z,30.10
2018-06-24T11:53:24.272Z,30.19
2018-06-24T11:55:53.306Z,29.85
2018-06-24T11:58:22.188Z,30.08
2018-06-24T12:00:51.286Z,30.07
2018-06-24T12:03:20.271Z,30.49
2018-06-24T12:05:50.130Z,30.36
2018-06-24T12:08:19.219Z,30.01
2018-06-24T12:10:48.525Z,29.86
2018-06-24T12:13:17.601Z,30.08
2018-06-24T12:15:46.438Z,30.50
2018-06-24T12:18:15.692Z,30.54
2018-06-24T12:20:44.884Z,30.41
2018-06-24T12:23:14.134Z,30.03
2018-06-24T12:25:43.340Z,30.58
2018-06-24T12:28:12.218Z,29.93
2018-06-24T12:30:41.413Z,30.55
2018-06-24T12:33:10.364Z,30.15
2018-06-24T12:35:39.346Z,30.22
2018-06-24T12:38:08.132Z,30.72
2018-06-24T12:40:37.097Z,30.17
2018-06-24T12:43:06.136Z,30.81
2018-06-24T12:45:34.962Z,30.70
2018-06-24T12:48:04.186Z,30.22
2018-06-24T12:50:33.094Z,30.80
2018-06-24T12:53:02.133Z,30.13
2018-06-24T12:55:31.084Z,30.40
2018-06-24T12:58:00.217Z,30.51
2018-06-24T13:00:29.695Z,30.29
2018-06-24T13:02:58.487Z,30.66
2018-06-24T13:05:27.424Z,30.42
2018-06-24T13:07:56.543Z,30.53
2018-06-24T13:10:25.685Z,30.76
2018-06-24T13:12:54.633Z,30.30
2018-06-24T13:15:23.677Z,30.12
2018-06-24T13:17:52.712Z,30.44
2018-06-24T13:20:21.617Z,30.26
2018-06-24T13:22:50.647Z,30.22
2018-06-24T13:25:19.815Z,30.28
2018-06-24T13:27:48.895Z,30.14
2018-06-24T13:30:18.072Z,30.30
2018-06-24T13:32:47.014Z,30.65
2018-06-24T13:35:16.859Z,30.69
2018-06-24T13:37:45.966Z,30.55
2018-06-24T13:40:14.945Z,30.16
2018-06-24T13:42:43.990Z,30.41
2018-06-24T13:45:12.794Z,30.43
2018-06-24T13:47:41.815Z,30.66
2018-06-24T13:50:10.913Z,30.42
2018-06-24T13:52:39.947Z,30.16
2018-06-24T13:55:09.114Z,30.21
2018-06-24T13:57:38.399Z,30.32
2018-06-24T14:00:07.516Z,30.77
2018-06-24T14:02:36.500Z,30.50
2018-06-24T14:05:05.491Z,30.12
2018-06-24T14:07:34.353Z,30.16
2018-06-24T14:10:03.278Z,30.27
2018-06-24T14:12:32.327Z,30.87
2018-06-24T14:15:01.377Z,30.22
2018-06-24T14:17:30.451Z,30.22
2018-06-24T14:19:59.463Z,30.45
2018-06-24T14:22:28.440Z,30.64
2018-06-24T14:24:57.519Z,30.77
2018-06-24T14:27:26.598Z,30.22
2018-06-24T14:29:55.621Z,30.41
2018-06-24T14:32:24.732Z,30.40
2018-06-24T14:34:53.778Z,30.39
2018-06-24T14:37:22.780Z,30.90
2018-06-24T14:39:51.931Z,30.67
2018-06-24T14:42:20.966Z,30.59
2018-06-24T14:44:50.077Z,30.51
2018-06-24T14:47:19.101Z,31.03
2018-06-24T14:49:48.322Z,30.62
2018-06-24T14:52:17.808Z,30.65
2018-06-24T14:54:46.756Z,30.67
2018-06-24T14:57:15.903Z,30.63
2018-06-24T14:59:45.076Z,30.82
2018-06-24T15:02:14.211Z,31.14
2018-06-24T15:04:43.385Z,31.16
2018-06-24T15:07:12.383Z,31.10
2018-06-24T15:09:41.455Z,31.10
2018-06-24T15:12:10.622Z,30.65
2018-06-24T15:14:39.916Z,31.21
2018-06-24T15:17:09.100Z,30.59
2018-06-24T15:19:38.118Z,31.14
2018-06-24T15:22:07.035Z,30.58
2018-06-24T15:24:35.935Z,30.94
2018-06-24T15:27:05.221Z,31.11
2018-06-24T15:29:34.370Z,30.71
2018-06-24T15:32:03.373Z,31.12
2018-06-24T15:34:32.427Z,31.21
2018-06-24T15:37:01.500Z,31.18
2018-06-24T15:39:30.423Z,31.12
2018-06-24T15:41:59.594Z,30.53
2018-06-24T15:44:28.727Z,30.56
2018-06-24T15:46:57.741Z,30.84
2018-06-24T15:49:27.048Z,30.88
2018-06-24T15:51:56.221Z,30.62
2018-06-24T15:54:25.320Z,30.92
2018-06-24T15:56:54.462Z,30.56
2018-06-24T15:59:23.607Z,30.62
2018-06-24T16:01:52.724Z,30.95
2018-06-24T16:04:21.879Z,30.43
2018-06-24T16:06:50.899Z,30.46
2018-06-24T16:09:20.684Z,30.53
2018-06-24T16:11:49.719Z,31.00
2018-06-24T16:14:18.736Z,31.20
2018-06-24T16:16:47.878Z,30.63
2018-06-24T16:19:17.087Z,30.62
2018-06-24T16:21:46.115Z,31.27
2018-06-24T16:24:15.155Z,31.27
2018-06-24T16:26:44.354Z,31.34
2018-06-24T16:29:13.576Z,30.71
2018-06-24T16:31:42.715Z,31.08
2018-06-24T16:34:11.871Z,30.92
2018-06-24T16:36:41.066Z,30.63
2018-06-24T16:39:11.412Z,31.19
2018-06-24T16:41:40.692Z,30.68
2018-06-24T16:44:10.094Z,30.59
2018-06-24T16:46:39.238Z,30.61
2018-06-24T16:49:08.232Z,31.29
2018-06-24T16:51:37.365Z,30.64
2018-06-24T16:54:06.602Z,31.02
2018-06-24T16:56:35.651Z,30.70
2018-06-24T16:59:04.835Z,30.79
2018-06-24T17:01:34.782Z,30.87
2018-06-24T17:04:03.881Z,31.04
2018-06-24T17:06:33.000Z,30.57
2018-06-24T17:09:02.225Z,30.53
2018-06-24T17:11:31.544Z,30.96
2018-06-24T17:14:00.694Z,30.47
2018-06-24T17:16:29.895Z,30.85
2018-06-24T17:18:58.946Z,30.34
2018-06-24T17:21:27.979Z,30.94
2018-06-24T17:23:57.218Z,30.70
2018-06-24T17:26:26.448Z,30.93
2018-06-24T17:28:55.338Z,30.10
2018-06-24T17:31:24.580Z,30.66
2018-06-24T17:33:53.848Z,30.66
2018-06-24T17:36:23.155Z,30.21
2018-06-24T17:38:52.362Z,30.14
2018-06-24T17:41:21.619Z,30.63
2018-06-24T17:43:50.845Z,30.66
2018-06-24T17:46:20.071Z,30.43
2018-06-24T17:48:49.417Z,29.75
2018-06-24T17:51:18.420Z,30.06
2018-06-24T17:53:47.746Z,30.60
2018-06-24T17:56:17.005Z,30.02
2018-06-24T17:58:46.168Z,29.96
2018-06-24T18:01:15.207Z,30.51
2018-06-24T18:03:44.272Z,30.42
2018-06-24T18:06:13.744Z,30.47
2018-06-24T18:08:43.073Z,30.39
2018-06-24T18:11:12.487Z,29.96
2018-06-24T18:13:41.987Z,29.71
2018-06-24T18:16:11.241Z,30.47
2018-06-24T18:18:40.604Z,29.87
2018-06-24T18:21:09.795Z,30.09
2018-06-24T18:23:39.169Z,29.80
2018-06-24T18:26:08.249Z,30.44
2018-06-24T18:28:37.691Z,30.50
2018-06-24T18:31:06.818Z,29.86
2018-06-24T18:33:35.715Z,30.24
2018-06-24T18:36:05.291Z,30.26
2018-06-24T18:38:34.396Z,30.29
2018-06-24T18:41:03.659Z,30.39
2018-06-24T18:43:32.698Z,29.86
2018-06-24T18:46:02.587Z,29.99
2018-06-24T18:48:32.012Z,30.30
2018-06-24T18:51:01.391Z,30.34
2018-06-24T18:53:30.682Z,30.22
2018-06-24T18:55:59.920Z,29.78
2018-06-24T18:58:29.230Z,30.13
2018-06-24T19:00:58.635Z,29.70
2018-06-24T19:03:28.117Z,29.75
2018-06-24T19:05:57.398Z,30.07
2018-06-24T19:08:26.931Z,30.08
2018-06-24T19:10:56.717Z,29.52
2018-06-24T19:13:25.952Z,29.47
2018-06-24T19:15:55.054Z,29.46
2018-06-24T19:18:24.848Z,30.04
2018-06-24T19:20:54.344Z,29.89
2018-06-24T19:23:23.586Z,29.76
2018-06-24T19:25:52.723Z,30.21
2018-06-24T19:28:21.977Z,30.01
2018-06-24T19:30:51.140Z,30.06
2018-06-24T19:33:20.588Z,29.99
2018-06-24T19:35:49.922Z,30.00
2018-06-24T19:38:19.096Z,30.04
2018-06-24T19:40:48.283Z,30.06
2018-06-24T19:43:17.502Z,30.07
2018-06-24T19:45:47.112Z,29.97
2018-06-24T19:48:16.230Z,29.99
2018-06-24T19:50:45.501Z,29.61
2018-06-24T19:53:14.780Z,29.45
2018-06-24T19:55:44.137Z,29.90
2018-06-24T19:58:13.490Z,29.41
2018-06-24T20:00:42.778Z,29.81
2018-06-24T20:03:12.009Z,30.00
2018-06-24T20:05:41.047Z,29.46
2018-06-24T20:08:11.042Z,29.30
2018-06-24T20:10:40.126Z,29.86
2018-06-24T20:13:09.350Z,29.95
2018-06-24T20:15:38.519Z,29.99
2018-06-24T20:18:07.614Z,29.92
2018-06-24T20:20:36.668Z,29.81
2018-06-24T20:23:05.802Z,29.94
2018-06-24T20:25:34.953Z,30.03
2018-06-24T20:28:04.128Z,29.88
2018-06-24T20:30:33.350Z,29.89
2018-06-24T20:33:02.496Z,29.94
2018-06-24T20:35:31.606Z,29.41
2018-06-24T20:38:00.930Z,29.73
2018-06-24T20:40:30.030Z,29.54
2018-06-24T20:42:58.969Z,29.31
2018-06-24T20:45:27.950Z,29.47
2018-06-24T20:47:57.134Z,29.22
2018-06-24T20:50:26.360Z,29.73
2018-06-24T20:52:55.570Z,29.44
2018-06-24T20:55:24.878Z,29.29
2018-06-24T20:57:54.041Z,29.77
2018-06-24T21:00:23.313Z,29.87
2018-06-24T21:02:52.766Z,29.19
2018-06-24T21:05:22.007Z,29.82
2018-06-24T21:07:51.000Z,29.18
2018-06-24T21:10:20.336Z,29.79
2018-06-24T21:12:49.572Z,29.84
2018-06-24T21:15:18.659Z,29.69
2018-06-24T21:17:47.694Z,29.78
2018-06-24T21:20:17.346Z,29.22
2018-06-24T21:22:46.453Z,29.24
2018-06-24T21:25:15.366Z,29.42
2018-06-24T21:27:44.448Z,29.20
2018-06-24T21:30:13.557Z,29.28
2018-06-24T21:32:42.696Z,29.31
2018-06-24T21:35:12.269Z,29.75
2018-06-24T21:37:42.481Z,29.24
2018-06-24T21:40:11.627Z,29.14
2018-06-24T21:42:40.868Z,29.60
2018-06-24T21:45:09.964Z,29.80
2018-06-24T21:47:39.078Z,29.26
2018-06-24T21:50:08.285Z,29.28
2018-06-24T21:52:37.954Z,29.14
2018-06-24T21:55:07.295Z,29.38
2018-06-24T21:57:36.490Z,29.24
2018-06-24T22:00:08.133Z,29.31
2018-06-24T22:02:37.048Z,29.24
2018-06-24T22:05:06.135Z,29.24
2018-06-24T22:07:35.883Z,29.32
2018-06-24T22:10:05.488Z,29.24
2018-06-24T22:12:34.551Z,29.74
2018-06-24T22:15:03.595Z,29.78
2018-06-24T22:17:32.643Z,29.26
2018-06-24T22:20:01.700Z,29.76
2018-06-24T22:22:30.869Z,29.38
2018-06-24T22:25:00.054Z,29.21
2018-06-24T22:27:29.053Z,29.24
2018-06-24T22:29:58.066Z,29.50
2018-06-24T22:32:27.201Z,29.78
2018-06-24T22:34:56.304Z,29.62
2018-06-24T22:37:25.506Z,29.33
2018-06-24T22:39:54.745Z,29.33
2018-06-24T22:42:23.936Z,29.76
2018-06-24T22:44:53.083Z,29.26
2018-06-24T22:47:22.170Z,29.28
2018-06-24T22:49:51.252Z,29.20
2018-06-24T22:52:20.268Z,29.28
2018-06-24T22:54:49.283Z,29.75
2018-06-24T22:57:18.428Z,29.28
2018-06-24T23:00:24.997Z,29.19
2018-06-24T23:02:54.224Z,29.23
2018-06-24T23:05:23.142Z,29.76
2018-06-24T23:07:52.103Z,29.77
2018-06-24T23:10:21.047Z,29.55
2018-06-24T23:12:49.985Z,29.19
2018-06-24T23:15:19.013Z,29.76
2018-06-24T23:17:47.913Z,29.86
2018-06-24T23:20:16.987Z,29.55
2018-06-24T23:22:46.005Z,29.56
2018-06-24T23:25:14.995Z,29.21
2018-06-24T23:27:43.873Z,29.38
2018-06-24T23:30:12.990Z,29.65
2018-06-24T23:32:42.127Z,29.25
2018-06-24T23:35:11.176Z,29.35
2018-06-24T23:37:40.218Z,29.18
2018-06-24T23:40:09.392Z,29.80
2018-06-24T23:42:38.318Z,29.74
2018-06-24T23:45:07.515Z,29.75
2018-06-24T23:47:36.455Z,29.36
2018-06-24T23:50:05.700Z,29.70
2018-06-24T23:52:34.911Z,29.35
2018-06-24T23:55:04.159Z,29.87
2018-06-24T23:57:33.240Z,29.83
